Overview Statistics Trail Chart Weather Telemetry Raw packets
 

This is the latest recevied packets stored in our database for station/object DK8VW-22. If no packets are shown the sender has not sent any packets the latest 24 hours.

If you compare the raw packets with similar data from other websites it may differ (especially the path), the reason is that we are not collecting packets from the same APRS-IS servers. Each APRS-IS server performes duplicate filtering, and which packet that is considered to be a duplicate may differ depending on which APRS-IS server you receive your data from.

<< 1 2 3 4 >>

1788602925: DK8VW-22>APRSGW,TCPIP*,qAR,DK8VW-22:T#605,0.0,0.0,0.0,0.0,18.8,00000000

1788602925: DK8VW-22>APRSGW,TCPIP*,qAR,DK8VW-22:!5146.30N/01012.30E&24/7 on air#MC GW Vinni daheim/B=100/A=000607/N7

1788601094: DK8VW-22>APRSGW,TCPIP*,qAR,DK8VW-22:T#604,0.0,0.0,0.0,0.0,18.8,00000000

1788601094: DK8VW-22>APRSGW,TCPIP*,qAR,DK8VW-22:!5146.30N/01012.30E&24/7 on air#MC GW Vinni daheim/B=100/A=000607/N7

1788599280: DK8VW-22>APRSMC,TCPIP*,qAR,DN9BN-99:T#608,0.0,0.0,0.0,0.0,18.7,00000000

1788599280: DK8VW-22>APRSMC,TCPIP*,qAR,DN9BN-99:!5146.30N/01012.30E&24/7 on air#MC GW Vinni daheim/B=100/A=000607/N7

1788599264: DK8VW-22>APRSGW,TCPIP*,qAR,DK8VW-22:T#603,0.0,0.0,0.0,0.0,18.7,00000000

1788599264: DK8VW-22>APRSGW,TCPIP*,qAR,DK8VW-22:!5146.30N/01012.30E&24/7 on air#MC GW Vinni daheim/B=100/A=000607/N7

1788597449: DK8VW-22>APRSMC,TCPIP*,qAR,DN9BN-99:T#607,0.0,0.0,0.0,0.0,18.7,00000000

1788597449: DK8VW-22>APRSMC,TCPIP*,qAR,DN9BN-99:!5146.30N/01012.30E&24/7 on air#MC GW Vinni daheim/B=100/A=000607/N6

1788597434: DK8VW-22>APRSGW,TCPIP*,qAR,DK8VW-22:T#602,0.0,0.0,0.0,0.0,18.7,00000000

1788597434: DK8VW-22>APRSGW,TCPIP*,qAR,DK8VW-22:!5146.30N/01012.30E&24/7 on air#MC GW Vinni daheim/B=100/A=000607/N6

1788595604: DK8VW-22>APRSGW,TCPIP*,qAR,DK8VW-22::DK8VW-22 :PARM.Press,Temp.in,Hum,QNH,Temp.out,track,-,-,-,-,-,-,-

1788595604: DK8VW-22>APRSGW,TCPIP*,qAR,DK8VW-22:T#601,0.0,0.0,0.0,0.0,18.6,00000000

1788595604: DK8VW-22>APRSGW,TCPIP*,qAR,DK8VW-22::DK8VW-22 :UNIT.hPa,C deg,%,hPa,C deg,Y/N,O/N,O/N,O/N,O/N,O/N,O/N,O/N

1788595604: DK8VW-22>APRSGW,TCPIP*,qAR,DK8VW-22::DK8VW-22 :EQNS.0,1,0,0,1,0,0,1,0,0,1,0,0,1,0

1788595604: DK8VW-22>APRSGW,TCPIP*,qAR,DK8VW-22:!5146.30N/01012.30E&24/7 on air#MC GW Vinni daheim/B=100/A=000607/N7

1788593774: DK8VW-22>APRSGW,TCPIP*,qAR,DK8VW-22:T#600,0.0,0.0,0.0,0.0,18.6,00000000

1788593774: DK8VW-22>APRSGW,TCPIP*,qAR,DK8VW-22:!5146.30N/01012.30E&24/7 on air#MC GW Vinni daheim/B=100/A=000607/N7

1788591956: DK8VW-22>APRSMC,TCPIP*,qAR,DN9BN-99:T#606,0.0,0.0,0.0,0.0,18.6,00000000

1788591956: DK8VW-22>APRSMC,TCPIP*,qAR,DN9BN-99:!5146.30N/01012.30E&24/7 on air#MC GW Vinni daheim/B=100/A=000607/N6

1788591944: DK8VW-22>APRSGW,TCPIP*,qAR,DK8VW-22:T#599,0.0,0.0,0.0,0.0,18.6,00000000

1788591944: DK8VW-22>APRSGW,TCPIP*,qAR,DK8VW-22:!5146.30N/01012.30E&24/7 on air#MC GW Vinni daheim/B=100/A=000607/N6

1788590126: DK8VW-22>APRSMC,TCPIP*,qAR,DN9BN-99:T#605,0.0,0.0,0.0,0.0,18.6,00000000

1788590126: DK8VW-22>APRSMC,TCPIP*,qAR,DN9BN-99:!5146.30N/01012.30E&24/7 on air#MC GW Vinni daheim/B=100/A=000607/N6